createdAt,value
2022-10-05T00:03:20.960Z,21.00
2022-10-05T00:07:24.431Z,20.75
2022-10-05T00:11:26.548Z,18.08
2022-10-05T00:15:29.331Z,17.85
2022-10-05T00:19:34.524Z,16.35
2022-10-05T00:23:36.299Z,15.85
2022-10-05T00:27:38.928Z,14.40
2022-10-05T00:31:40.625Z,14.00
2022-10-05T00:35:42.670Z,13.63
2022-10-05T00:39:44.406Z,13.18
2022-10-05T00:44:03.877Z,12.73
2022-10-05T00:48:41.554Z,13.63
2022-10-05T00:53:18.812Z,12.30
2022-10-05T00:58:06.851Z,15.10
2022-10-05T01:02:35.881Z,12.15
2022-10-05T01:07:00.199Z,12.90
2022-10-05T01:11:37.636Z,12.73
2022-10-05T01:15:47.545Z,13.38
2022-10-05T01:20:14.527Z,17.25
2022-10-05T01:24:43.892Z,15.30
2022-10-05T01:29:05.195Z,15.18
2022-10-05T01:33:21.432Z,16.35
2022-10-05T01:37:58.745Z,13.85
2022-10-05T01:42:19.764Z,15.88
2022-10-05T01:46:31.258Z,11.98
2022-10-05T01:50:52.362Z,13.60
2022-10-05T01:55:06.099Z,14.90
2022-10-05T01:59:18.849Z,13.27
2022-10-05T02:03:27.109Z,12.23
2022-10-05T02:08:14.091Z,12.98
2022-10-05T02:12:21.499Z,13.25
2022-10-05T02:16:31.929Z,12.63
2022-10-05T02:20:37.582Z,14.25
2022-10-05T02:24:48.197Z,12.40
2022-10-05T02:28:58.637Z,13.07
2022-10-05T02:33:06.807Z,14.32
2022-10-05T02:37:46.406Z,12.98
2022-10-05T02:42:03.169Z,14.20
2022-10-05T02:46:26.742Z,14.32
2022-10-05T02:50:47.485Z,13.73
2022-10-05T02:55:19.317Z,13.63
2022-10-05T02:59:38.477Z,13.32
2022-10-05T03:03:47.422Z,13.60
2022-10-05T03:07:57.992Z,14.13
2022-10-05T03:12:30.500Z,14.07
2022-10-05T03:16:51.904Z,13.93
2022-10-05T03:21:23.322Z,13.15
2022-10-05T03:25:40.846Z,13.88
2022-10-05T03:30:03.348Z,11.27
2022-10-05T03:34:41.872Z,12.77
2022-10-05T03:38:54.481Z,12.63
2022-10-05T03:43:19.190Z,12.63
2022-10-05T03:47:35.947Z,12.75
2022-10-05T03:51:43.353Z,12.93
2022-10-05T03:55:51.878Z,14.77
2022-10-05T04:00:02.732Z,15.48
2022-10-05T04:04:39.759Z,13.88
2022-10-05T04:08:56.227Z,17.17
2022-10-05T04:13:40.235Z,15.63
2022-10-05T04:18:00.709Z,15.15
2022-10-05T04:22:22.527Z,16.17
2022-10-05T04:26:37.243Z,15.13
2022-10-05T04:31:07.284Z,15.90
2022-10-05T04:35:53.709Z,14.77
2022-10-05T04:40:14.613Z,16.55
2022-10-05T04:44:35.528Z,17.60
2022-10-05T04:48:44.939Z,18.02
2022-10-05T04:53:05.093Z,17.65
2022-10-05T04:57:13.583Z,15.98
2022-10-05T05:06:17.992Z,16.42
2022-10-05T05:10:48.971Z,17.92
2022-10-05T05:15:01.787Z,18.77
2022-10-05T05:19:28.685Z,19.17
2022-10-05T05:23:44.368Z,19.90
2022-10-05T05:28:23.393Z,18.52
2022-10-05T05:32:52.848Z,18.88
2022-10-05T05:37:01.157Z,19.25
2022-10-05T05:41:40.168Z,19.98
2022-10-05T05:45:58.238Z,21.10
2022-10-05T05:50:07.805Z,21.00
2022-10-05T05:54:15.557Z,19.60
2022-10-05T05:58:38.476Z,19.38
2022-10-05T06:03:00.849Z,20.65
2022-10-05T06:07:05.877Z,19.83
2022-10-05T06:11:18.992Z,17.95
2022-10-05T06:15:39.281Z,18.83
2022-10-05T06:19:44.099Z,18.80
2022-10-05T06:23:54.151Z,19.50
2022-10-05T06:28:03.751Z,19.95
2022-10-05T06:32:20.223Z,16.52
2022-10-05T06:36:40.391Z,17.20
2022-10-05T06:41:20.321Z,17.65
2022-10-05T06:45:45.927Z,15.55
2022-10-05T06:50:21.479Z,13.95
2022-10-05T06:54:45.961Z,13.95
2022-10-05T06:59:17.151Z,12.15
2022-10-05T07:12:11.538Z,12.93
2022-10-05T07:16:45.520Z,11.30
2022-10-05T07:20:57.865Z,11.35
2022-10-05T07:25:26.629Z,10.48
2022-10-05T07:29:51.555Z,10.07
2022-10-05T07:34:04.856Z,9.75
2022-10-05T07:38:15.435Z,9.77
2022-10-05T07:42:29.375Z,9.90
2022-10-05T07:46:47.766Z,8.93
2022-10-05T07:51:15.856Z,8.70
2022-10-05T07:55:20.769Z,8.98
2022-10-05T07:59:34.385Z,8.73
2022-10-05T08:03:55.740Z,6.90
2022-10-05T08:08:19.799Z,7.82
2022-10-05T08:12:31.710Z,6.90
2022-10-05T08:16:38.079Z,6.30
2022-10-05T08:20:45.852Z,7.28
2022-10-05T08:25:09.912Z,7.30
2022-10-05T08:29:45.210Z,7.35
2022-10-05T08:34:22.069Z,7.22
2022-10-05T08:38:31.639Z,6.90
2022-10-05T08:42:36.610Z,7.13
2022-10-05T08:47:18.627Z,6.57
2022-10-05T08:51:48.625Z,7.22
2022-10-05T08:56:28.500Z,7.57
2022-10-05T09:05:16.459Z,6.30
2022-10-05T09:09:45.200Z,6.55
2022-10-05T09:13:58.844Z,6.88
2022-10-05T09:18:37.907Z,6.28
2022-10-05T09:22:58.154Z,6.72
2022-10-05T09:27:23.886Z,6.40
2022-10-05T09:31:56.992Z,6.07
2022-10-05T09:36:12.418Z,5.80
2022-10-05T09:40:47.451Z,5.47
2022-10-05T09:45:20.460Z,5.10
2022-10-05T09:49:46.515Z,5.35
2022-10-05T09:54:19.986Z,5.03
2022-10-05T09:59:07.564Z,5.32
2022-10-05T10:03:44.570Z,5.10
2022-10-05T10:08:15.125Z,4.80
2022-10-05T10:12:33.271Z,5.20
2022-10-05T10:17:19.700Z,5.03
2022-10-05T10:21:42.184Z,4.97
2022-10-05T10:26:06.469Z,4.68
2022-10-05T10:30:32.034Z,5.65
2022-10-05T10:34:37.844Z,5.35
2022-10-05T10:39:06.298Z,5.00
2022-10-05T10:43:26.568Z,5.10
2022-10-05T10:47:50.585Z,5.60
2022-10-05T10:52:17.207Z,5.80
2022-10-05T11:01:32.323Z,5.03
2022-10-05T11:05:58.162Z,4.95
2022-10-05T11:10:26.096Z,5.13
2022-10-05T11:14:46.093Z,4.80
2022-10-05T11:19:05.776Z,4.97
2022-10-05T11:23:49.690Z,5.78
2022-10-05T11:28:04.021Z,4.75
2022-10-05T11:32:24.289Z,6.10
2022-10-05T11:36:58.301Z,4.88
2022-10-05T11:41:47.083Z,5.13
2022-10-05T11:46:27.793Z,4.90
2022-10-05T11:50:40.072Z,4.35
2022-10-05T11:55:17.183Z,4.45
2022-10-05T11:59:34.491Z,3.97
2022-10-05T12:03:53.677Z,4.00
2022-10-05T12:08:14.169Z,4.10
2022-10-05T12:12:27.080Z,4.53
2022-10-05T12:16:50.636Z,4.53
2022-10-05T12:20:59.168Z,4.15
2022-10-05T12:29:11.599Z,4.75
2022-10-05T12:33:29.196Z,3.67
2022-10-05T12:37:53.218Z,4.43
2022-10-05T12:42:18.388Z,4.22
2022-10-05T12:47:11.575Z,4.07
2022-10-05T12:51:45.144Z,4.85
2022-10-05T12:55:58.403Z,5.15
2022-10-05T13:00:09.864Z,5.47
2022-10-05T13:04:49.210Z,4.95
2022-10-05T13:09:00.279Z,5.43
2022-10-05T13:13:26.055Z,5.60
2022-10-05T13:17:50.029Z,5.07
2022-10-05T13:22:09.544Z,5.03
2022-10-05T13:26:19.517Z,5.15
2022-10-05T13:30:21.862Z,5.28
2022-10-05T13:34:54.467Z,4.97
2022-10-05T13:39:09.899Z,5.35
2022-10-05T13:43:29.801Z,5.53
2022-10-05T13:47:39.005Z,5.35
2022-10-05T13:52:04.111Z,4.78
2022-10-05T13:56:16.318Z,5.22
2022-10-05T14:00:26.532Z,5.65
2022-10-05T14:04:42.222Z,5.63
2022-10-05T14:08:52.033Z,5.50
2022-10-05T14:12:54.759Z,6.43
2022-10-05T14:16:59.454Z,5.50
2022-10-05T14:21:08.498Z,5.28
2022-10-05T14:25:10.447Z,4.80
2022-10-05T14:29:14.960Z,5.82
2022-10-05T14:33:17.117Z,5.68
2022-10-05T14:37:25.263Z,5.07
2022-10-05T14:41:29.064Z,5.43
2022-10-05T14:45:32.653Z,5.63
2022-10-05T14:49:37.065Z,5.68
2022-10-05T14:53:45.563Z,5.30
2022-10-05T14:58:30.724Z,6.18
2022-10-05T15:02:45.012Z,5.40
2022-10-05T15:06:58.534Z,5.07
2022-10-05T15:11:23.869Z,6.13
2022-10-05T15:15:42.524Z,6.07
2022-10-05T15:20:09.587Z,5.30
2022-10-05T15:24:17.691Z,5.50
2022-10-05T15:28:28.466Z,6.10
2022-10-05T15:33:07.520Z,6.38
2022-10-05T15:37:21.167Z,6.15
2022-10-05T15:41:45.743Z,6.45
2022-10-05T15:46:13.956Z,6.68
2022-10-05T15:50:29.820Z,6.70
2022-10-05T15:55:05.992Z,5.95
2022-10-05T15:59:25.888Z,7.00
2022-10-05T16:04:01.165Z,8.07
2022-10-05T16:08:22.021Z,7.60
2022-10-05T16:12:42.720Z,8.27
2022-10-05T16:16:59.621Z,7.82
2022-10-05T16:21:11.956Z,7.30
2022-10-05T16:25:44.009Z,8.07
2022-10-05T16:29:59.992Z,7.53
2022-10-05T16:34:24.744Z,7.40
2022-10-05T16:38:52.782Z,7.63
2022-10-05T16:43:15.323Z,7.47
2022-10-05T16:47:34.632Z,7.18
2022-10-05T16:51:59.113Z,6.85
2022-10-05T16:56:05.208Z,7.38
2022-10-05T17:00:19.384Z,7.40
2022-10-05T17:04:42.800Z,7.47
2022-10-05T17:09:14.422Z,9.05
2022-10-05T17:13:28.969Z,8.77
2022-10-05T17:18:02.071Z,9.07
2022-10-05T17:22:39.593Z,9.93
2022-10-05T17:27:17.841Z,8.35
2022-10-05T17:31:23.066Z,9.00
2022-10-05T17:35:56.864Z,8.93
2022-10-05T17:39:59.050Z,8.63
2022-10-05T17:44:06.770Z,10.60
2022-10-05T17:48:13.087Z,9.60
2022-10-05T17:52:43.855Z,8.60
2022-10-05T17:56:48.578Z,9.00
2022-10-05T18:01:00.642Z,9.30
2022-10-05T18:05:16.114Z,8.05
2022-10-05T18:09:30.768Z,9.68
2022-10-05T18:13:41.565Z,8.82
2022-10-05T18:17:51.507Z,9.15
2022-10-05T18:22:03.438Z,8.90
2022-10-05T18:26:07.999Z,9.57
2022-10-05T18:30:27.282Z,8.52
2022-10-05T18:34:50.778Z,10.25
2022-10-05T18:39:26.934Z,10.18
2022-10-05T18:43:47.501Z,9.77
2022-10-05T18:48:07.762Z,10.25
2022-10-05T18:52:29.390Z,8.68
2022-10-05T18:56:39.909Z,9.25
2022-10-05T19:01:00.363Z,9.20
2022-10-05T19:05:42.598Z,8.93
2022-10-05T19:10:03.558Z,8.88
2022-10-05T19:14:45.365Z,8.68
2022-10-05T19:19:29.319Z,8.38
2022-10-05T19:23:49.180Z,8.90
2022-10-05T19:28:04.095Z,9.97
2022-10-05T19:32:18.486Z,8.80
2022-10-05T19:41:00.126Z,8.50
2022-10-05T19:45:22.633Z,8.80
2022-10-05T19:49:56.958Z,9.38
2022-10-05T19:54:12.535Z,8.82
2022-10-05T19:58:32.397Z,8.63
2022-10-05T20:02:37.522Z,9.52
2022-10-05T20:06:43.305Z,9.90
2022-10-05T20:11:03.008Z,9.50
2022-10-05T20:15:26.386Z,9.98
2022-10-05T20:19:49.555Z,11.05
2022-10-05T20:24:09.906Z,10.30
2022-10-05T20:28:11.714Z,12.55
2022-10-05T20:32:17.951Z,12.70
2022-10-05T20:36:19.883Z,12.80
2022-10-05T20:40:21.962Z,12.38
2022-10-05T20:44:23.772Z,11.40
2022-10-05T20:48:26.948Z,12.60
2022-10-05T20:52:29.389Z,12.00
2022-10-05T20:56:31.410Z,13.85
2022-10-05T21:00:53.076Z,13.07
2022-10-05T21:04:55.121Z,12.57
2022-10-05T21:08:56.803Z,13.10
2022-10-05T21:13:01.548Z,12.65
2022-10-05T21:17:05.014Z,11.40
2022-10-05T21:21:07.443Z,11.10
2022-10-05T21:25:09.314Z,11.80
2022-10-05T21:29:13.150Z,11.32
2022-10-05T21:33:14.821Z,13.13
2022-10-05T21:37:16.696Z,11.55
2022-10-05T21:41:19.136Z,12.30
2022-10-05T21:45:21.058Z,13.35
2022-10-05T21:49:23.265Z,12.98
2022-10-05T21:53:29.656Z,12.60
2022-10-05T21:57:31.975Z,12.02
2022-10-05T22:01:35.925Z,11.93
2022-10-05T22:05:37.978Z,14.15
2022-10-05T22:09:39.884Z,12.00
2022-10-05T22:14:06.171Z,13.35
2022-10-05T22:18:15.494Z,13.68
2022-10-05T22:22:17.464Z,13.73
2022-10-05T22:26:22.424Z,14.27
2022-10-05T22:30:24.142Z,13.05
2022-10-05T22:34:26.211Z,13.30
2022-10-05T22:38:30.320Z,14.98
2022-10-05T22:42:32.710Z,14.27
2022-10-05T22:46:35.283Z,16.20
2022-10-05T22:50:37.111Z,15.68
2022-10-05T22:54:38.758Z,16.27
2022-10-05T22:58:41.576Z,17.30
2022-10-05T23:02:43.877Z,15.70
2022-10-05T23:06:45.808Z,16.35
2022-10-05T23:10:47.466Z,16.17
2022-10-05T23:14:49.348Z,16.73
2022-10-05T23:18:52.740Z,15.25
2022-10-05T23:22:54.556Z,16.45
2022-10-05T23:26:56.207Z,15.32
2022-10-05T23:31:03.412Z,15.60
2022-10-05T23:35:06.286Z,15.85
2022-10-05T23:39:08.123Z,15.68
2022-10-05T23:43:09.883Z,13.48
2022-10-05T23:47:11.823Z,15.15
2022-10-05T23:51:14.409Z,14.88
2022-10-05T23:55:16.453Z,14.25
2022-10-05T23:59:18.115Z,14.82
